sensor_id;sensor_type;location;lat;lon;timestamp;temperature;humidity
13074;DHT22;6603;47.066;15.396;2023-05-07T00:01:56;14.90;99.90
13074;DHT22;6603;47.066;15.396;2023-05-07T00:04:22;14.90;99.90
13074;DHT22;6603;47.066;15.396;2023-05-07T00:06:48;14.90;99.90
13074;DHT22;6603;47.066;15.396;2023-05-07T00:09:14;14.90;99.90
13074;DHT22;6603;47.066;15.396;2023-05-07T00:11:40;14.90;99.90
13074;DHT22;6603;47.066;15.396;2023-05-07T00:14:06;14.80;99.90
13074;DHT22;6603;47.066;15.396;2023-05-07T00:16:32;14.80;99.90
13074;DHT22;6603;47.066;15.396;2023-05-07T00:18:58;14.80;99.90
13074;DHT22;6603;47.066;15.396;2023-05-07T00:21:24;14.70;99.90
13074;DHT22;6603;47.066;15.396;2023-05-07T00:23:53;14.70;99.90
13074;DHT22;6603;47.066;15.396;2023-05-07T00:26:19;14.60;99.90
13074;DHT22;6603;47.066;15.396;2023-05-07T00:28:46;14.60;99.90
13074;DHT22;6603;47.066;15.396;2023-05-07T00:31:12;14.60;99.90
13074;DHT22;6603;47.066;15.396;2023-05-07T00:33:38;14.50;99.90
13074;DHT22;6603;47.066;15.396;2023-05-07T00:36:04;14.60;99.90
13074;DHT22;6603;47.066;15.396;2023-05-07T00:38:30;14.50;99.90
13074;DHT22;6603;47.066;15.396;2023-05-07T00:54:03;14.30;99.90
13074;DHT22;6603;47.066;15.396;2023-05-07T00:56:29;14.30;99.90
13074;DHT22;6603;47.066;15.396;2023-05-07T00:58:56;14.20;99.90
13074;DHT22;6603;47.066;15.396;2023-05-07T01:01:22;14.20;99.90
13074;DHT22;6603;47.066;15.396;2023-05-07T01:03:48;14.10;99.90
13074;DHT22;6603;47.066;15.396;2023-05-07T01:06:14;14.10;99.90
13074;DHT22;6603;47.066;15.396;2023-05-07T01:08:42;14.00;99.90
13074;DHT22;6603;47.066;15.396;2023-05-07T01:11:09;14.00;99.90
13074;DHT22;6603;47.066;15.396;2023-05-07T01:13:36;14.00;99.90
13074;DHT22;6603;47.066;15.396;2023-05-07T01:16:03;14.00;99.90
13074;DHT22;6603;47.066;15.396;2023-05-07T01:18:29;13.80;99.90
13074;DHT22;6603;47.066;15.396;2023-05-07T01:20:59;13.80;99.90
13074;DHT22;6603;47.066;15.396;2023-05-07T01:23:27;13.70;99.90
13074;DHT22;6603;47.066;15.396;2023-05-07T01:25:54;13.80;99.90
13074;DHT22;6603;47.066;15.396;2023-05-07T01:28:20;13.70;99.90
13074;DHT22;6603;47.066;15.396;2023-05-07T01:31:01;13.60;99.90
13074;DHT22;6603;47.066;15.396;2023-05-07T01:33:32;13.50;99.90
13074;DHT22;6603;47.066;15.396;2023-05-07T01:35:59;13.40;99.90
13074;DHT22;6603;47.066;15.396;2023-05-07T01:38:28;13.50;99.90
13074;DHT22;6603;47.066;15.396;2023-05-07T01:40:56;13.50;99.90
13074;DHT22;6603;47.066;15.396;2023-05-07T01:43:22;13.30;99.90
13074;DHT22;6603;47.066;15.396;2023-05-07T01:45:48;13.20;99.90
13074;DHT22;6603;47.066;15.396;2023-05-07T01:48:15;13.20;99.90
13074;DHT22;6603;47.066;15.396;2023-05-07T01:50:45;13.20;99.90
13074;DHT22;6603;47.066;15.396;2023-05-07T01:53:11;13.10;99.90
13074;DHT22;6603;47.066;15.396;2023-05-07T01:55:37;13.10;99.90
13074;DHT22;6603;47.066;15.396;2023-05-07T01:58:03;13.00;99.90
13074;DHT22;6603;47.066;15.396;2023-05-07T02:00:30;12.90;99.90
13074;DHT22;6603;47.066;15.396;2023-05-07T02:02:57;12.90;99.90
13074;DHT22;6603;47.066;15.396;2023-05-07T02:05:23;12.90;99.90
13074;DHT22;6603;47.066;15.396;2023-05-07T02:07:49;12.90;99.90
13074;DHT22;6603;47.066;15.396;2023-05-07T02:10:15;12.80;99.90
13074;DHT22;6603;47.066;15.396;2023-05-07T02:12:41;12.80;99.90
13074;DHT22;6603;47.066;15.396;2023-05-07T02:15:08;12.70;99.90
13074;DHT22;6603;47.066;15.396;2023-05-07T02:17:34;12.60;99.90
13074;DHT22;6603;47.066;15.396;2023-05-07T02:20:01;12.50;99.90
13074;DHT22;6603;47.066;15.396;2023-05-07T02:22:27;12.40;99.90
13074;DHT22;6603;47.066;15.396;2023-05-07T02:24:53;12.40;99.90
13074;DHT22;6603;47.066;15.396;2023-05-07T02:27:19;12.40;99.90
13074;DHT22;6603;47.066;15.396;2023-05-07T02:29:45;12.20;99.90
13074;DHT22;6603;47.066;15.396;2023-05-07T02:32:11;12.20;99.90
13074;DHT22;6603;47.066;15.396;2023-05-07T02:34:37;12.20;99.90
13074;DHT22;6603;47.066;15.396;2023-05-07T02:37:03;12.20;99.90
13074;DHT22;6603;47.066;15.396;2023-05-07T02:39:29;12.10;99.90
13074;DHT22;6603;47.066;15.396;2023-05-07T02:41:55;12.10;99.90
13074;DHT22;6603;47.066;15.396;2023-05-07T02:44:21;12.10;99.90
13074;DHT22;6603;47.066;15.396;2023-05-07T02:46:47;12.00;99.90
13074;DHT22;6603;47.066;15.396;2023-05-07T02:49:13;12.00;99.90
13074;DHT22;6603;47.066;15.396;2023-05-07T02:51:38;12.00;99.90
13074;DHT22;6603;47.066;15.396;2023-05-07T02:54:04;11.90;99.90
13074;DHT22;6603;47.066;15.396;2023-05-07T02:56:30;11.90;99.90
13074;DHT22;6603;47.066;15.396;2023-05-07T02:58:56;11.90;99.90
13074;DHT22;6603;47.066;15.396;2023-05-07T03:01:22;11.90;99.90
13074;DHT22;6603;47.066;15.396;2023-05-07T03:03:48;11.70;99.90
13074;DHT22;6603;47.066;15.396;2023-05-07T03:06:14;11.70;99.90
13074;DHT22;6603;47.066;15.396;2023-05-07T03:08:40;11.70;99.90
13074;DHT22;6603;47.066;15.396;2023-05-07T03:11:06;11.70;99.90
13074;DHT22;6603;47.066;15.396;2023-05-07T03:13:32;11.60;99.90
13074;DHT22;6603;47.066;15.396;2023-05-07T03:15:58;11.60;99.90
13074;DHT22;6603;47.066;15.396;2023-05-07T03:18:24;11.70;99.90
13074;DHT22;6603;47.066;15.396;2023-05-07T03:20:51;11.70;99.90
13074;DHT22;6603;47.066;15.396;2023-05-07T03:23:17;11.70;99.90
13074;DHT22;6603;47.066;15.396;2023-05-07T03:25:43;11.70;99.90
13074;DHT22;6603;47.066;15.396;2023-05-07T03:28:09;11.70;99.90
13074;DHT22;6603;47.066;15.396;2023-05-07T03:30:35;11.70;99.90
13074;DHT22;6603;47.066;15.396;2023-05-07T03:33:00;11.60;99.90
13074;DHT22;6603;47.066;15.396;2023-05-07T03:35:26;11.60;99.90
13074;DHT22;6603;47.066;15.396;2023-05-07T03:37:52;11.50;99.90
13074;DHT22;6603;47.066;15.396;2023-05-07T03:40:18;11.40;99.90
13074;DHT22;6603;47.066;15.396;2023-05-07T03:42:44;11.30;99.90
13074;DHT22;6603;47.066;15.396;2023-05-07T03:45:10;11.30;99.90
13074;DHT22;6603;47.066;15.396;2023-05-07T03:47:36;11.20;99.90
13074;DHT22;6603;47.066;15.396;2023-05-07T03:50:02;11.40;99.90
13074;DHT22;6603;47.066;15.396;2023-05-07T03:52:28;11.40;99.90
13074;DHT22;6603;47.066;15.396;2023-05-07T03:54:54;11.40;99.90
13074;DHT22;6603;47.066;15.396;2023-05-07T03:57:20;11.30;99.90
13074;DHT22;6603;47.066;15.396;2023-05-07T03:59:46;11.50;99.90
13074;DHT22;6603;47.066;15.396;2023-05-07T04:02:12;11.50;99.90
13074;DHT22;6603;47.066;15.396;2023-05-07T04:04:38;11.60;99.90
13074;DHT22;6603;47.066;15.396;2023-05-07T04:07:03;11.50;99.90
13074;DHT22;6603;47.066;15.396;2023-05-07T04:09:30;11.60;99.90
13074;DHT22;6603;47.066;15.396;2023-05-07T04:11:56;11.70;99.90
13074;DHT22;6603;47.066;15.396;2023-05-07T04:14:22;11.70;99.90
13074;DHT22;6603;47.066;15.396;2023-05-07T04:16:47;11.80;99.90
13074;DHT22;6603;47.066;15.396;2023-05-07T04:19:13;11.90;99.90
13074;DHT22;6603;47.066;15.396;2023-05-07T04:21:39;11.90;99.90
13074;DHT22;6603;47.066;15.396;2023-05-07T04:24:06;12.00;99.90
13074;DHT22;6603;47.066;15.396;2023-05-07T04:26:31;12.10;99.90
13074;DHT22;6603;47.066;15.396;2023-05-07T04:28:57;12.10;99.90
13074;DHT22;6603;47.066;15.396;2023-05-07T04:31:24;12.10;99.90
13074;DHT22;6603;47.066;15.396;2023-05-07T04:33:50;12.10;99.90
13074;DHT22;6603;47.066;15.396;2023-05-07T04:36:17;12.10;99.90
13074;DHT22;6603;47.066;15.396;2023-05-07T04:38:43;12.20;99.90
13074;DHT22;6603;47.066;15.396;2023-05-07T04:41:09;12.30;99.90
13074;DHT22;6603;47.066;15.396;2023-05-07T04:43:35;12.20;99.90
13074;DHT22;6603;47.066;15.396;2023-05-07T04:46:01;12.30;99.90
13074;DHT22;6603;47.066;15.396;2023-05-07T04:48:27;12.30;99.90
13074;DHT22;6603;47.066;15.396;2023-05-07T04:50:55;12.40;99.90
13074;DHT22;6603;47.066;15.396;2023-05-07T04:53:20;12.50;99.90
13074;DHT22;6603;47.066;15.396;2023-05-07T04:55:47;12.70;99.90
13074;DHT22;6603;47.066;15.396;2023-05-07T04:58:13;12.70;99.90
13074;DHT22;6603;47.066;15.396;2023-05-07T05:00:39;12.90;99.90
13074;DHT22;6603;47.066;15.396;2023-05-07T05:03:06;12.80;99.90
13074;DHT22;6603;47.066;15.396;2023-05-07T05:05:33;12.90;99.90
13074;DHT22;6603;47.066;15.396;2023-05-07T05:07:58;13.10;99.90
13074;DHT22;6603;47.066;15.396;2023-05-07T05:10:24;13.10;99.90
13074;DHT22;6603;47.066;15.396;2023-05-07T05:12:51;13.20;99.90
13074;DHT22;6603;47.066;15.396;2023-05-07T05:15:17;13.30;99.90
13074;DHT22;6603;47.066;15.396;2023-05-07T05:17:43;13.40;99.90
13074;DHT22;6603;47.066;15.396;2023-05-07T05:20:09;13.40;99.90
13074;DHT22;6603;47.066;15.396;2023-05-07T05:22:37;13.50;99.90
13074;DHT22;6603;47.066;15.396;2023-05-07T05:25:04;13.60;99.90
13074;DHT22;6603;47.066;15.396;2023-05-07T05:27:29;13.80;99.90
13074;DHT22;6603;47.066;15.396;2023-05-07T05:29:56;13.80;99.90
13074;DHT22;6603;47.066;15.396;2023-05-07T05:32:22;13.90;99.90
13074;DHT22;6603;47.066;15.396;2023-05-07T05:34:49;13.90;99.90
13074;DHT22;6603;47.066;15.396;2023-05-07T05:37:15;14.00;99.90
13074;DHT22;6603;47.066;15.396;2023-05-07T05:39:41;14.10;99.90
13074;DHT22;6603;47.066;15.396;2023-05-07T05:42:08;14.10;99.90
13074;DHT22;6603;47.066;15.396;2023-05-07T05:44:34;14.20;99.90
13074;DHT22;6603;47.066;15.396;2023-05-07T05:50:17;14.30;99.90
13074;DHT22;6603;47.066;15.396;2023-05-07T05:52:43;14.50;99.90
13074;DHT22;6603;47.066;15.396;2023-05-07T05:55:09;14.60;99.90
13074;DHT22;6603;47.066;15.396;2023-05-07T05:57:35;14.60;99.90
13074;DHT22;6603;47.066;15.396;2023-05-07T06:00:02;14.70;99.90
13074;DHT22;6603;47.066;15.396;2023-05-07T06:02:28;14.80;99.90
13074;DHT22;6603;47.066;15.396;2023-05-07T06:04:54;14.90;99.90
13074;DHT22;6603;47.066;15.396;2023-05-07T06:07:20;14.90;99.90
13074;DHT22;6603;47.066;15.396;2023-05-07T06:09:46;15.00;99.90
13074;DHT22;6603;47.066;15.396;2023-05-07T06:12:12;15.10;99.90
13074;DHT22;6603;47.066;15.396;2023-05-07T06:14:38;15.20;99.90
13074;DHT22;6603;47.066;15.396;2023-05-07T06:17:04;15.40;99.90
13074;DHT22;6603;47.066;15.396;2023-05-07T06:19:30;15.50;99.90
13074;DHT22;6603;47.066;15.396;2023-05-07T06:21:56;15.60;94.90
13074;DHT22;6603;47.066;15.396;2023-05-07T06:24:22;15.50;96.80
13074;DHT22;6603;47.066;15.396;2023-05-07T06:26:48;15.60;97.50
13074;DHT22;6603;47.066;15.396;2023-05-07T06:29:14;15.90;69.20
13074;DHT22;6603;47.066;15.396;2023-05-07T06:31:40;16.00;55.10
13074;DHT22;6603;47.066;15.396;2023-05-07T06:34:07;16.10;72.50
13074;DHT22;6603;47.066;15.396;2023-05-07T06:36:33;16.20;13.60
13074;DHT22;6603;47.066;15.396;2023-05-07T06:38:59;16.20;2.30
13074;DHT22;6603;47.066;15.396;2023-05-07T06:41:25;16.20;1.00
13074;DHT22;6603;47.066;15.396;2023-05-07T06:43:51;16.40;1.00
13074;DHT22;6603;47.066;15.396;2023-05-07T06:46:17;16.50;4.50
13074;DHT22;6603;47.066;15.396;2023-05-07T06:48:42;16.50;1.00
13074;DHT22;6603;47.066;15.396;2023-05-07T06:51:08;16.60;1.00
13074;DHT22;6603;47.066;15.396;2023-05-07T06:53:35;16.60;1.00
13074;DHT22;6603;47.066;15.396;2023-05-07T06:56:01;16.70;1.00
13074;DHT22;6603;47.066;15.396;2023-05-07T06:58:27;16.90;1.00
13074;DHT22;6603;47.066;15.396;2023-05-07T07:00:52;16.90;1.00
13074;DHT22;6603;47.066;15.396;2023-05-07T07:03:18;17.00;1.00
13074;DHT22;6603;47.066;15.396;2023-05-07T07:05:44;17.00;1.00
13074;DHT22;6603;47.066;15.396;2023-05-07T07:08:10;17.10;1.00
13074;DHT22;6603;47.066;15.396;2023-05-07T07:10:35;17.20;1.00
13074;DHT22;6603;47.066;15.396;2023-05-07T07:13:01;17.30;1.00
13074;DHT22;6603;47.066;15.396;2023-05-07T07:15:27;17.40;1.00
13074;DHT22;6603;47.066;15.396;2023-05-07T07:17:52;17.50;1.00
13074;DHT22;6603;47.066;15.396;2023-05-07T07:20:18;17.60;1.00
13074;DHT22;6603;47.066;15.396;2023-05-07T07:22:44;17.70;1.00
13074;DHT22;6603;47.066;15.396;2023-05-07T07:25:10;17.80;1.00
13074;DHT22;6603;47.066;15.396;2023-05-07T07:27:36;18.00;1.00
13074;DHT22;6603;47.066;15.396;2023-05-07T07:30:02;18.10;1.00
13074;DHT22;6603;47.066;15.396;2023-05-07T07:32:28;18.20;1.00
13074;DHT22;6603;47.066;15.396;2023-05-07T07:34:54;18.30;1.00
13074;DHT22;6603;47.066;15.396;2023-05-07T07:37:20;18.50;1.00
13074;DHT22;6603;47.066;15.396;2023-05-07T07:39:45;18.70;1.00
13074;DHT22;6603;47.066;15.396;2023-05-07T07:42:11;18.70;1.00
13074;DHT22;6603;47.066;15.396;2023-05-07T07:44:37;18.80;1.00
13074;DHT22;6603;47.066;15.396;2023-05-07T07:47:04;19.00;1.00
13074;DHT22;6603;47.066;15.396;2023-05-07T07:49:30;19.00;99.90
13074;DHT22;6603;47.066;15.396;2023-05-07T07:51:56;18.90;1.00
13074;DHT22;6603;47.066;15.396;2023-05-07T07:54:24;18.90;1.00
13074;DHT22;6603;47.066;15.396;2023-05-07T07:56:49;19.00;1.00
13074;DHT22;6603;47.066;15.396;2023-05-07T07:59:15;19.00;99.90
13074;DHT22;6603;47.066;15.396;2023-05-07T08:01:44;19.10;1.00
13074;DHT22;6603;47.066;15.396;2023-05-07T08:04:10;19.20;99.90
13074;DHT22;6603;47.066;15.396;2023-05-07T08:06:36;19.30;99.90
13074;DHT22;6603;47.066;15.396;2023-05-07T08:09:02;19.30;99.90
13074;DHT22;6603;47.066;15.396;2023-05-07T08:11:28;19.10;99.90
13074;DHT22;6603;47.066;15.396;2023-05-07T08:13:54;19.10;99.90
13074;DHT22;6603;47.066;15.396;2023-05-07T08:16:20;18.90;1.00
13074;DHT22;6603;47.066;15.396;2023-05-07T08:18:46;19.00;1.00
13074;DHT22;6603;47.066;15.396;2023-05-07T08:21:12;19.20;1.00
13074;DHT22;6603;47.066;15.396;2023-05-07T08:23:38;19.30;99.90
13074;DHT22;6603;47.066;15.396;2023-05-07T08:26:03;19.40;1.00
13074;DHT22;6603;47.066;15.396;2023-05-07T08:28:29;19.50;99.90
13074;DHT22;6603;47.066;15.396;2023-05-07T08:30:55;19.70;1.00
13074;DHT22;6603;47.066;15.396;2023-05-07T08:33:22;19.60;1.00
13074;DHT22;6603;47.066;15.396;2023-05-07T08:35:47;19.40;1.00
13074;DHT22;6603;47.066;15.396;2023-05-07T08:38:13;19.50;1.00
13074;DHT22;6603;47.066;15.396;2023-05-07T08:40:39;19.50;1.00
13074;DHT22;6603;47.066;15.396;2023-05-07T08:43:07;19.30;1.00
13074;DHT22;6603;47.066;15.396;2023-05-07T08:45:33;19.70;1.00
13074;DHT22;6603;47.066;15.396;2023-05-07T08:48:02;19.60;1.00
13074;DHT22;6603;47.066;15.396;2023-05-07T08:50:29;19.40;25.60
13074;DHT22;6603;47.066;15.396;2023-05-07T08:52:55;19.40;99.90
13074;DHT22;6603;47.066;15.396;2023-05-07T08:55:22;19.90;99.90
13074;DHT22;6603;47.066;15.396;2023-05-07T08:57:49;20.30;1.00
13074;DHT22;6603;47.066;15.396;2023-05-07T09:00:15;20.30;1.00
13074;DHT22;6603;47.066;15.396;2023-05-07T09:02:41;20.50;1.00
13074;DHT22;6603;47.066;15.396;2023-05-07T09:05:08;20.40;1.00
13074;DHT22;6603;47.066;15.396;2023-05-07T09:07:33;20.30;1.00
13074;DHT22;6603;47.066;15.396;2023-05-07T09:10:04;20.10;99.90
13074;DHT22;6603;47.066;15.396;2023-05-07T09:12:30;20.10;1.00
13074;DHT22;6603;47.066;15.396;2023-05-07T09:14:57;20.40;1.00
13074;DHT22;6603;47.066;15.396;2023-05-07T09:17:22;20.50;72.60
13074;DHT22;6603;47.066;15.396;2023-05-07T09:19:48;20.60;96.60
13074;DHT22;6603;47.066;15.396;2023-05-07T09:22:14;21.00;1.00
13074;DHT22;6603;47.066;15.396;2023-05-07T09:24:40;21.30;1.00
13074;DHT22;6603;47.066;15.396;2023-05-07T09:27:06;21.50;78.60
13074;DHT22;6603;47.066;15.396;2023-05-07T09:29:32;21.30;1.00
13074;DHT22;6603;47.066;15.396;2023-05-07T09:32:05;21.00;1.00
13074;DHT22;6603;47.066;15.396;2023-05-07T09:34:31;21.10;99.90
13074;DHT22;6603;47.066;15.396;2023-05-07T09:37:01;21.40;99.90
13074;DHT22;6603;47.066;15.396;2023-05-07T09:39:45;21.80;1.00
13074;DHT22;6603;47.066;15.396;2023-05-07T09:42:11;22.00;99.90
13074;DHT22;6603;47.066;15.396;2023-05-07T09:44:38;21.70;93.10
13074;DHT22;6603;47.066;15.396;2023-05-07T09:47:08;21.40;99.90
13074;DHT22;6603;47.066;15.396;2023-05-07T09:49:35;21.40;1.00
13074;DHT22;6603;47.066;15.396;2023-05-07T09:52:03;21.60;1.00
13074;DHT22;6603;47.066;15.396;2023-05-07T09:54:32;22.10;99.90
13074;DHT22;6603;47.066;15.396;2023-05-07T09:57:00;22.00;1.00
13074;DHT22;6603;47.066;15.396;2023-05-07T09:59:28;21.70;1.00
13074;DHT22;6603;47.066;15.396;2023-05-07T10:01:57;21.70;1.00
13074;DHT22;6603;47.066;15.396;2023-05-07T10:04:25;22.10;1.00
13074;DHT22;6603;47.066;15.396;2023-05-07T10:06:52;22.40;99.90
13074;DHT22;6603;47.066;15.396;2023-05-07T10:09:19;22.20;1.00
13074;DHT22;6603;47.066;15.396;2023-05-07T10:11:46;22.20;99.90
13074;DHT22;6603;47.066;15.396;2023-05-07T10:14:14;22.10;1.00
13074;DHT22;6603;47.066;15.396;2023-05-07T10:16:40;22.00;99.90
13074;DHT22;6603;47.066;15.396;2023-05-07T10:19:08;21.90;1.00
13074;DHT22;6603;47.066;15.396;2023-05-07T10:21:39;21.80;1.00
13074;DHT22;6603;47.066;15.396;2023-05-07T10:24:13;21.80;99.90
13074;DHT22;6603;47.066;15.396;2023-05-07T10:26:44;21.80;1.00
13074;DHT22;6603;47.066;15.396;2023-05-07T10:34:36;22.30;1.00
13074;DHT22;6603;47.066;15.396;2023-05-07T10:37:03;22.40;1.00
13074;DHT22;6603;47.066;15.396;2023-05-07T10:39:30;22.30;62.40
13074;DHT22;6603;47.066;15.396;2023-05-07T10:41:56;22.20;99.90
13074;DHT22;6603;47.066;15.396;2023-05-07T10:44:29;22.20;99.90
13074;DHT22;6603;47.066;15.396;2023-05-07T10:47:11;22.70;1.00
13074;DHT22;6603;47.066;15.396;2023-05-07T10:52:20;23.10;99.90
13074;DHT22;6603;47.066;15.396;2023-05-07T10:54:47;23.40;1.00
13074;DHT22;6603;47.066;15.396;2023-05-07T10:57:35;23.40;1.00
13074;DHT22;6603;47.066;15.396;2023-05-07T11:05:30;24.10;1.00
13074;DHT22;6603;47.066;15.396;2023-05-07T11:07:57;24.30;99.90
13074;DHT22;6603;47.066;15.396;2023-05-07T11:10:47;24.40;99.90
13074;DHT22;6603;47.066;15.396;2023-05-07T11:13:09;24.40;99.90
13074;DHT22;6603;47.066;15.396;2023-05-07T11:15:43;24.10;99.90
13074;DHT22;6603;47.066;15.396;2023-05-07T11:18:11;24.10;99.90
13074;DHT22;6603;47.066;15.396;2023-05-07T11:26:04;24.30;99.90
13074;DHT22;6603;47.066;15.396;2023-05-07T11:28:37;24.20;99.90
13074;DHT22;6603;47.066;15.396;2023-05-07T11:31:03;24.10;99.90
13074;DHT22;6603;47.066;15.396;2023-05-07T11:33:30;23.80;99.90
13074;DHT22;6603;47.066;15.396;2023-05-07T11:35:57;23.80;99.90
13074;DHT22;6603;47.066;15.396;2023-05-07T11:38:23;23.90;99.90
13074;DHT22;6603;47.066;15.396;2023-05-07T11:40:57;24.50;99.90
13074;DHT22;6603;47.066;15.396;2023-05-07T11:43:24;24.70;99.90
13074;DHT22;6603;47.066;15.396;2023-05-07T11:45:50;24.80;99.90
13074;DHT22;6603;47.066;15.396;2023-05-07T11:48:16;24.60;88.60
13074;DHT22;6603;47.066;15.396;2023-05-07T11:50:52;24.30;99.90
13074;DHT22;6603;47.066;15.396;2023-05-07T11:53:19;23.90;99.90
13074;DHT22;6603;47.066;15.396;2023-05-07T11:55:46;23.90;99.90
13074;DHT22;6603;47.066;15.396;2023-05-07T11:58:12;23.80;99.90
13074;DHT22;6603;47.066;15.396;2023-05-07T12:00:53;24.00;99.90
13074;DHT22;6603;47.066;15.396;2023-05-07T12:03:19;24.60;99.90
13074;DHT22;6603;47.066;15.396;2023-05-07T12:05:48;24.70;99.90
13074;DHT22;6603;47.066;15.396;2023-05-07T12:08:21;24.60;99.90
13074;DHT22;6603;47.066;15.396;2023-05-07T12:10:49;24.70;70.10
13074;DHT22;6603;47.066;15.396;2023-05-07T12:13:20;24.60;1.20
13074;DHT22;6603;47.066;15.396;2023-05-07T12:15:46;24.40;52.50
13074;DHT22;6603;47.066;15.396;2023-05-07T12:18:12;24.70;99.90
13074;DHT22;6603;47.066;15.396;2023-05-07T12:20:39;24.30;99.90
13074;DHT22;6603;47.066;15.396;2023-05-07T12:23:05;24.40;99.90
13074;DHT22;6603;47.066;15.396;2023-05-07T12:25:38;24.50;99.90
13074;DHT22;6603;47.066;15.396;2023-05-07T12:28:05;24.40;99.90
13074;DHT22;6603;47.066;15.396;2023-05-07T12:30:38;24.40;99.90
13074;DHT22;6603;47.066;15.396;2023-05-07T12:33:04;24.10;99.90
13074;DHT22;6603;47.066;15.396;2023-05-07T12:35:32;23.70;99.90
13074;DHT22;6603;47.066;15.396;2023-05-07T12:37:59;23.50;99.90
13074;DHT22;6603;47.066;15.396;2023-05-07T12:40:42;23.10;99.90
13074;DHT22;6603;47.066;15.396;2023-05-07T12:43:15;22.90;99.90
13074;DHT22;6603;47.066;15.396;2023-05-07T12:45:42;22.60;1.00
13074;DHT22;6603;47.066;15.396;2023-05-07T12:48:10;22.30;1.00
13074;DHT22;6603;47.066;15.396;2023-05-07T12:50:35;22.10;1.00
13074;DHT22;6603;47.066;15.396;2023-05-07T12:53:04;22.10;1.00
13074;DHT22;6603;47.066;15.396;2023-05-07T12:55:46;21.70;1.00
13074;DHT22;6603;47.066;15.396;2023-05-07T12:58:21;21.50;1.00
13074;DHT22;6603;47.066;15.396;2023-05-07T13:00:50;21.30;1.00
13074;DHT22;6603;47.066;15.396;2023-05-07T13:05:52;21.10;35.30
13074;DHT22;6603;47.066;15.396;2023-05-07T13:08:32;20.70;1.00
13074;DHT22;6603;47.066;15.396;2023-05-07T13:11:00;20.40;1.00
13074;DHT22;6603;47.066;15.396;2023-05-07T13:13:34;19.50;1.00
13074;DHT22;6603;47.066;15.396;2023-05-07T13:16:01;17.90;98.60
13074;DHT22;6603;47.066;15.396;2023-05-07T13:18:29;16.50;99.90
13074;DHT22;6603;47.066;15.396;2023-05-07T13:20:55;16.00;99.90
13074;DHT22;6603;47.066;15.396;2023-05-07T13:23:21;15.70;99.90
13074;DHT22;6603;47.066;15.396;2023-05-07T13:25:48;15.50;99.90
13074;DHT22;6603;47.066;15.396;2023-05-07T13:28:13;15.20;99.90
13074;DHT22;6603;47.066;15.396;2023-05-07T13:30:39;15.10;99.90
13074;DHT22;6603;47.066;15.396;2023-05-07T13:33:06;15.00;99.90
13074;DHT22;6603;47.066;15.396;2023-05-07T13:35:32;15.10;99.90
13074;DHT22;6603;47.066;15.396;2023-05-07T13:37:58;15.00;99.90
13074;DHT22;6603;47.066;15.396;2023-05-07T13:40:24;15.00;99.90
13074;DHT22;6603;47.066;15.396;2023-05-07T13:42:50;14.90;99.90
13074;DHT22;6603;47.066;15.396;2023-05-07T13:45:17;14.80;99.90
13074;DHT22;6603;47.066;15.396;2023-05-07T13:47:43;14.70;99.90
13074;DHT22;6603;47.066;15.396;2023-05-07T13:50:10;14.60;99.90
13074;DHT22;6603;47.066;15.396;2023-05-07T13:52:43;14.70;99.90
13074;DHT22;6603;47.066;15.396;2023-05-07T13:55:13;14.60;99.90
13074;DHT22;6603;47.066;15.396;2023-05-07T13:57:39;14.70;99.90
13074;DHT22;6603;47.066;15.396;2023-05-07T14:00:05;14.90;99.90
13074;DHT22;6603;47.066;15.396;2023-05-07T14:02:31;15.10;99.90
13074;DHT22;6603;47.066;15.396;2023-05-07T14:04:57;15.30;99.90
13074;DHT22;6603;47.066;15.396;2023-05-07T14:07:23;15.30;99.90
13074;DHT22;6603;47.066;15.396;2023-05-07T14:09:48;15.40;99.90
13074;DHT22;6603;47.066;15.396;2023-05-07T14:12:14;15.60;99.90
13074;DHT22;6603;47.066;15.396;2023-05-07T14:14:40;15.50;99.90
13074;DHT22;6603;47.066;15.396;2023-05-07T14:17:05;15.60;99.90
13074;DHT22;6603;47.066;15.396;2023-05-07T14:19:31;15.60;99.90
13074;DHT22;6603;47.066;15.396;2023-05-07T14:21:57;15.60;99.90
13074;DHT22;6603;47.066;15.396;2023-05-07T14:24:24;15.50;99.90
13074;DHT22;6603;47.066;15.396;2023-05-07T14:26:50;15.60;99.90
13074;DHT22;6603;47.066;15.396;2023-05-07T14:29:16;15.50;99.90
13074;DHT22;6603;47.066;15.396;2023-05-07T14:31:44;15.30;99.90
13074;DHT22;6603;47.066;15.396;2023-05-07T14:34:10;15.40;99.90
13074;DHT22;6603;47.066;15.396;2023-05-07T14:36:36;15.70;99.90
13074;DHT22;6603;47.066;15.396;2023-05-07T14:39:03;15.80;99.90
13074;DHT22;6603;47.066;15.396;2023-05-07T14:41:29;15.90;99.90
13074;DHT22;6603;47.066;15.396;2023-05-07T14:43:55;15.80;99.90
13074;DHT22;6603;47.066;15.396;2023-05-07T14:46:21;15.80;99.90
13074;DHT22;6603;47.066;15.396;2023-05-07T14:48:47;15.80;99.90
13074;DHT22;6603;47.066;15.396;2023-05-07T14:51:13;15.70;99.90
13074;DHT22;6603;47.066;15.396;2023-05-07T14:53:41;15.70;99.90
13074;DHT22;6603;47.066;15.396;2023-05-07T14:56:07;15.50;99.90
13074;DHT22;6603;47.066;15.396;2023-05-07T14:58:33;15.40;99.90
13074;DHT22;6603;47.066;15.396;2023-05-07T15:01:00;15.20;99.90
13074;DHT22;6603;47.066;15.396;2023-05-07T15:03:27;15.20;99.90
13074;DHT22;6603;47.066;15.396;2023-05-07T15:05:52;15.40;99.90
13074;DHT22;6603;47.066;15.396;2023-05-07T15:08:18;15.20;99.90
13074;DHT22;6603;47.066;15.396;2023-05-07T15:10:45;15.20;99.90
13074;DHT22;6603;47.066;15.396;2023-05-07T15:13:11;15.20;99.90
13074;DHT22;6603;47.066;15.396;2023-05-07T15:15:39;15.20;99.90
13074;DHT22;6603;47.066;15.396;2023-05-07T15:18:05;15.10;99.90
13074;DHT22;6603;47.066;15.396;2023-05-07T15:20:30;15.20;99.90
13074;DHT22;6603;47.066;15.396;2023-05-07T15:22:56;15.40;99.90
13074;DHT22;6603;47.066;15.396;2023-05-07T15:25:22;15.70;99.90
13074;DHT22;6603;47.066;15.396;2023-05-07T15:27:48;16.10;99.90
13074;DHT22;6603;47.066;15.396;2023-05-07T15:30:14;16.40;99.90
13074;DHT22;6603;47.066;15.396;2023-05-07T15:32:41;16.50;99.90
13074;DHT22;6603;47.066;15.396;2023-05-07T15:35:07;16.90;99.90
13074;DHT22;6603;47.066;15.396;2023-05-07T15:37:33;17.00;99.90
13074;DHT22;6603;47.066;15.396;2023-05-07T15:39:59;17.10;99.90
13074;DHT22;6603;47.066;15.396;2023-05-07T15:42:28;17.10;99.90
13074;DHT22;6603;47.066;15.396;2023-05-07T15:44:53;17.10;99.90
13074;DHT22;6603;47.066;15.396;2023-05-07T15:47:20;17.10;99.90
13074;DHT22;6603;47.066;15.396;2023-05-07T15:49:46;17.20;99.90
13074;DHT22;6603;47.066;15.396;2023-05-07T15:52:12;17.30;99.90
13074;DHT22;6603;47.066;15.396;2023-05-07T15:54:40;17.30;99.90
13074;DHT22;6603;47.066;15.396;2023-05-07T15:57:06;17.30;99.90
13074;DHT22;6603;47.066;15.396;2023-05-07T15:59:32;17.30;99.90
13074;DHT22;6603;47.066;15.396;2023-05-07T16:01:59;17.20;99.90
13074;DHT22;6603;47.066;15.396;2023-05-07T16:04:25;17.10;99.90
13074;DHT22;6603;47.066;15.396;2023-05-07T16:06:52;17.10;99.90
13074;DHT22;6603;47.066;15.396;2023-05-07T16:09:18;17.10;99.90
13074;DHT22;6603;47.066;15.396;2023-05-07T16:11:44;17.00;99.90